createdAt,value
2023-05-21T00:00:47.220Z,100.00
2023-05-21T00:03:16.754Z,100.00
2023-05-21T00:05:47.318Z,100.00
2023-05-21T00:08:16.144Z,100.00
2023-05-21T00:10:44.982Z,100.00
2023-05-21T00:13:13.842Z,100.00
2023-05-21T00:15:42.666Z,100.00
2023-05-21T00:18:12.082Z,100.00
2023-05-21T00:20:41.709Z,100.00
2023-05-21T00:23:10.406Z,100.00
2023-05-21T00:25:39.139Z,100.00
2023-05-21T00:28:09.486Z,100.00
2023-05-21T00:30:38.175Z,100.00
2023-05-21T00:33:07.773Z,100.00
2023-05-21T00:35:36.746Z,100.00
2023-05-21T00:38:07.312Z,100.00
2023-05-21T00:40:37.165Z,100.00
2023-05-21T00:43:05.945Z,100.00
2023-05-21T00:45:36.491Z,100.00
2023-05-21T00:48:08.292Z,100.00
2023-05-21T00:50:39.158Z,100.00
2023-05-21T00:53:11.608Z,100.00
2023-05-21T00:55:41.153Z,100.00
2023-05-21T00:58:09.998Z,100.00
2023-05-21T01:00:40.380Z,100.00
2023-05-21T01:03:13.276Z,100.00
2023-05-21T01:05:45.313Z,100.00
2023-05-21T01:08:15.097Z,100.00
2023-05-21T01:10:44.561Z,100.00
2023-05-21T01:13:13.376Z,100.00
2023-05-21T01:15:42.851Z,100.00
2023-05-21T01:18:12.190Z,100.00
2023-05-21T01:20:42.608Z,100.00
2023-05-21T01:23:12.207Z,100.00
2023-05-21T01:25:45.438Z,100.00
2023-05-21T01:28:14.971Z,100.00
2023-05-21T01:30:44.839Z,100.00
2023-05-21T01:33:23.230Z,100.00
2023-05-21T01:36:16.098Z,100.00
2023-05-21T01:39:09.965Z,100.00
2023-05-21T01:41:41.638Z,100.00
2023-05-21T01:44:11.864Z,100.00
2023-05-21T01:46:41.461Z,100.00
2023-05-21T01:49:11.187Z,100.00
2023-05-21T01:51:41.029Z,100.00
2023-05-21T01:54:09.849Z,100.00
2023-05-21T01:56:40.188Z,100.00
2023-05-21T01:59:11.071Z,100.00
2023-05-21T02:01:40.026Z,100.00
2023-05-21T02:04:08.856Z,100.00
2023-05-21T02:06:40.716Z,100.00
2023-05-21T02:09:09.476Z,100.00
2023-05-21T02:11:38.397Z,100.00
2023-05-21T02:14:10.313Z,100.00
2023-05-21T02:16:39.138Z,100.00
2023-05-21T02:19:09.502Z,100.00
2023-05-21T02:21:38.318Z,100.00
2023-05-21T02:24:09.216Z,100.00
2023-05-21T02:26:38.094Z,100.00
2023-05-21T02:29:07.002Z,100.00
2023-05-21T02:31:36.093Z,100.00
2023-05-21T02:34:04.835Z,100.00
2023-05-21T02:36:33.712Z,100.00
2023-05-21T02:39:02.615Z,100.00
2023-05-21T02:41:31.516Z,100.00
2023-05-21T02:44:03.115Z,100.00
2023-05-21T02:46:31.855Z,100.00
2023-05-21T02:49:00.895Z,100.00
2023-05-21T02:51:29.592Z,100.00
2023-05-21T02:53:58.338Z,100.00
2023-05-21T02:56:27.229Z,100.00
2023-05-21T02:58:55.950Z,100.00
2023-05-21T03:01:24.822Z,100.00
2023-05-21T03:03:53.533Z,100.00
2023-05-21T03:06:23.729Z,100.00
2023-05-21T03:08:52.437Z,100.00
2023-05-21T03:11:22.734Z,100.00
2023-05-21T03:13:51.685Z,100.00
2023-05-21T03:16:20.458Z,100.00
2023-05-21T03:18:49.460Z,100.00
2023-05-21T03:21:18.293Z,100.00
2023-05-21T03:23:46.922Z,100.00
2023-05-21T03:26:15.923Z,100.00
2023-05-21T03:28:44.605Z,100.00
2023-05-21T03:31:13.289Z,100.00
2023-05-21T03:33:42.076Z,100.00
2023-05-21T03:36:10.688Z,100.00
2023-05-21T03:38:39.465Z,100.00
2023-05-21T03:41:09.536Z,100.00
2023-05-21T03:43:38.376Z,100.00
2023-05-21T03:46:09.411Z,100.00
2023-05-21T03:48:38.137Z,100.00
2023-05-21T03:51:07.878Z,100.00
2023-05-21T03:53:36.686Z,100.00
2023-05-21T03:56:05.573Z,100.00
2023-05-21T03:58:34.348Z,100.00
2023-05-21T04:01:04.802Z,100.00
2023-05-21T04:03:36.307Z,100.00
2023-05-21T04:06:06.942Z,100.00
2023-05-21T04:08:36.723Z,100.00
2023-05-21T04:11:05.856Z,100.00
2023-05-21T04:13:38.116Z,100.00
2023-05-21T04:16:08.789Z,100.00
2023-05-21T04:18:38.322Z,100.00
2023-05-21T04:21:08.673Z,100.00
2023-05-21T04:23:37.991Z,100.00
2023-05-21T04:26:07.762Z,100.00
2023-05-21T04:28:36.836Z,100.00
2023-05-21T04:31:05.801Z,100.00
2023-05-21T04:33:35.980Z,100.00
2023-05-21T04:36:07.730Z,100.00
2023-05-21T04:38:41.735Z,100.00
2023-05-21T04:41:07.604Z,100.00
2023-05-21T04:43:36.949Z,100.00
2023-05-21T04:46:08.734Z,100.00
2023-05-21T04:48:39.181Z,100.00
2023-05-21T04:51:17.175Z,100.00
2023-05-21T04:53:46.484Z,100.00
2023-05-21T04:56:15.807Z,100.00
2023-05-21T04:58:48.336Z,100.00
2023-05-21T05:01:19.264Z,100.00
2023-05-21T05:03:48.230Z,100.00
2023-05-21T05:06:18.457Z,100.00
2023-05-21T05:08:47.133Z,100.00
2023-05-21T05:11:15.857Z,100.00
2023-05-21T05:13:44.816Z,100.00
2023-05-21T05:16:21.708Z,100.00
2023-05-21T05:18:54.687Z,100.00
2023-05-21T05:21:24.221Z,100.00
2023-05-21T05:23:55.888Z,100.00
2023-05-21T05:26:24.680Z,100.00
2023-05-21T05:28:53.445Z,100.00
2023-05-21T05:31:22.133Z,100.00
2023-05-21T05:33:50.867Z,100.00
2023-05-21T05:36:19.635Z,100.00
2023-05-21T05:38:48.271Z,100.00
2023-05-21T05:41:16.944Z,100.00
2023-05-21T05:43:53.273Z,100.00
2023-05-21T05:46:22.159Z,100.00
2023-05-21T05:48:51.002Z,100.00
2023-05-21T05:51:19.698Z,100.00
2023-05-21T05:53:48.391Z,100.00
2023-05-21T05:56:17.278Z,100.00
2023-05-21T05:58:46.144Z,100.00
2023-05-21T06:01:15.109Z,100.00
2023-05-21T06:03:43.945Z,100.00
2023-05-21T06:06:13.216Z,100.00
2023-05-21T06:08:42.021Z,100.00
2023-05-21T06:11:11.541Z,100.00
2023-05-21T06:13:40.145Z,100.00
2023-05-21T06:16:10.192Z,100.00
2023-05-21T06:18:39.252Z,100.00
2023-05-21T06:21:12.568Z,100.00
2023-05-21T06:23:41.907Z,100.00
2023-05-21T06:26:10.708Z,100.00
2023-05-21T06:28:39.385Z,100.00
2023-05-21T06:31:08.030Z,100.00
2023-05-21T06:33:37.114Z,100.00
2023-05-21T06:36:06.118Z,100.00
2023-05-21T06:38:34.933Z,100.00
2023-05-21T06:41:04.202Z,100.00
2023-05-21T06:43:32.850Z,100.00
2023-05-21T06:46:01.696Z,100.00
2023-05-21T06:48:30.631Z,100.00
2023-05-21T06:50:59.396Z,100.00
2023-05-21T06:53:28.706Z,100.00
2023-05-21T06:55:59.099Z,100.00
2023-05-21T06:58:31.554Z,100.00
2023-05-21T07:01:03.787Z,100.00
2023-05-21T07:03:32.628Z,100.00
2023-05-21T07:06:12.646Z,100.00
2023-05-21T07:09:42.346Z,100.00
2023-05-21T07:11:51.455Z,100.00
2023-05-21T07:14:19.161Z,100.00
2023-05-21T07:16:47.870Z,95.80
2023-05-21T07:19:18.328Z,94.03
2023-05-21T07:21:47.935Z,91.17
2023-05-21T07:24:27.949Z,91.99
2023-05-21T07:26:56.760Z,92.53
2023-05-21T07:29:35.802Z,95.71
2023-05-21T07:32:04.772Z,96.63
2023-05-21T07:34:33.452Z,94.78
2023-05-21T07:37:04.814Z,94.31
2023-05-21T07:39:33.630Z,96.03
2023-05-21T07:42:02.319Z,95.71
2023-05-21T07:44:32.484Z,95.53
2023-05-21T07:47:01.425Z,88.43
2023-05-21T07:49:30.062Z,76.84
2023-05-21T07:51:58.781Z,75.59
2023-05-21T07:54:52.447Z,70.16
2023-05-21T08:00:20.825Z,50.78
2023-05-21T08:02:52.794Z,48.09
2023-05-21T08:05:25.736Z,45.01
2023-05-21T08:07:54.638Z,44.60
2023-05-21T08:10:29.530Z,43.37
2023-05-21T08:13:02.782Z,42.26
2023-05-21T08:15:34.689Z,41.92
2023-05-21T08:18:06.947Z,41.02
2023-05-21T08:20:35.706Z,41.27
2023-05-21T08:23:05.062Z,41.20
2023-05-21T08:25:33.761Z,40.19
2023-05-21T08:28:02.443Z,40.44
2023-05-21T08:30:31.378Z,40.18
2023-05-21T08:33:00.268Z,40.36
2023-05-21T08:35:29.182Z,40.94
2023-05-21T08:37:58.880Z,40.75
2023-05-21T08:40:27.611Z,41.02
2023-05-21T08:42:56.325Z,40.34
2023-05-21T08:45:25.252Z,40.08
2023-05-21T08:48:01.340Z,38.64
2023-05-21T08:50:30.392Z,38.95
2023-05-21T08:53:01.365Z,37.60
2023-05-21T08:55:32.083Z,37.89
2023-05-21T08:58:05.722Z,39.02
2023-05-21T09:00:36.148Z,39.82
2023-05-21T09:03:11.294Z,40.31
2023-05-21T09:05:44.876Z,40.74
2023-05-21T09:08:36.668Z,39.95
2023-05-21T09:11:05.470Z,40.62
2023-05-21T09:13:38.826Z,40.10
2023-05-21T09:16:10.295Z,40.00
2023-05-21T09:18:39.167Z,40.35
2023-05-21T09:21:31.520Z,41.67
2023-05-21T09:24:08.858Z,39.11
2023-05-21T09:26:48.836Z,38.75
2023-05-21T09:29:17.672Z,38.19
2023-05-21T09:31:52.732Z,39.44
2023-05-21T09:34:21.620Z,39.38
2023-05-21T09:36:58.799Z,38.60
2023-05-21T09:39:35.965Z,37.68
2023-05-21T09:42:11.030Z,37.78
2023-05-21T09:44:40.378Z,37.13
2023-05-21T09:47:12.998Z,36.80
2023-05-21T09:49:47.558Z,36.94
2023-05-21T09:52:20.426Z,38.78
2023-05-21T09:54:49.260Z,37.15
2023-05-21T09:57:20.081Z,36.78
2023-05-21T09:59:54.207Z,35.73
2023-05-21T10:02:24.605Z,36.22
2023-05-21T10:04:57.031Z,34.37
2023-05-21T10:07:29.917Z,34.68
2023-05-21T10:10:00.818Z,34.63
2023-05-21T10:12:32.137Z,35.84
2023-05-21T10:15:11.548Z,35.47
2023-05-21T10:17:44.380Z,34.40
2023-05-21T10:23:46.088Z,35.35
2023-05-21T10:27:14.112Z,35.16
2023-05-21T10:39:43.396Z,33.44
2023-05-21T10:42:36.741Z,33.55
2023-05-21T10:45:31.920Z,33.26
2023-05-21T10:48:16.192Z,34.78
2023-05-21T10:50:53.666Z,36.61
2023-05-21T10:53:34.722Z,35.95
2023-05-21T10:56:18.150Z,35.61
2023-05-21T10:59:07.817Z,36.25
2023-05-21T11:01:50.400Z,35.36
2023-05-21T11:04:36.549Z,35.51
2023-05-21T11:07:07.289Z,35.51
2023-05-21T11:09:35.755Z,36.11
2023-05-21T11:12:09.933Z,37.50
2023-05-21T11:14:43.668Z,38.53
2023-05-21T11:17:20.188Z,38.83
2023-05-21T11:19:52.736Z,38.29
2023-05-21T11:22:26.981Z,38.04
2023-05-21T11:25:03.526Z,37.31
2023-05-21T11:27:51.784Z,37.80
2023-05-21T11:30:24.588Z,37.90
2023-05-21T11:33:30.202Z,36.48
2023-05-21T11:36:02.545Z,37.51
2023-05-21T11:38:42.069Z,36.80
2023-05-21T11:41:22.787Z,38.69
2023-05-21T11:43:58.067Z,39.58
2023-05-21T11:46:56.020Z,39.44
2023-05-21T11:52:25.564Z,39.46
2023-05-21T11:54:58.230Z,39.61
2023-05-21T11:57:31.387Z,39.93
2023-05-21T12:00:01.843Z,39.69
2023-05-21T12:02:38.353Z,39.97
2023-05-21T12:05:11.846Z,41.48
2023-05-21T12:07:42.692Z,43.32
2023-05-21T12:10:12.202Z,44.04
2023-05-21T12:12:54.109Z,43.26
2023-05-21T12:15:13.382Z,45.23
2023-05-21T12:17:45.118Z,44.81
2023-05-21T12:20:17.166Z,45.18
2023-05-21T12:22:46.646Z,45.79
2023-05-21T12:25:15.912Z,46.34
2023-05-21T12:27:45.087Z,45.97
2023-05-21T12:30:14.691Z,45.52
2023-05-21T12:33:15.442Z,45.19
2023-05-21T12:35:25.057Z,44.74
2023-05-21T12:38:05.024Z,43.31
2023-05-21T12:48:52.083Z,41.82
2023-05-21T12:54:02.213Z,43.27
2023-05-21T12:56:33.909Z,44.36
2023-05-21T12:59:02.807Z,44.99
2023-05-21T13:01:32.092Z,45.66
2023-05-21T13:04:01.055Z,46.59
2023-05-21T13:06:29.772Z,48.05
2023-05-21T13:09:00.919Z,50.11
2023-05-21T13:11:36.365Z,50.01
2023-05-21T13:14:04.984Z,52.11
2023-05-21T13:16:33.692Z,52.97
2023-05-21T13:19:26.041Z,52.96
2023-05-21T13:21:42.124Z,50.30
2023-05-21T13:24:10.917Z,54.89
2023-05-21T13:26:39.745Z,53.77
2023-05-21T13:29:08.531Z,54.59
2023-05-21T13:31:40.104Z,52.72
2023-05-21T13:34:33.873Z,54.13
2023-05-21T13:37:02.758Z,53.05
2023-05-21T13:39:40.492Z,50.91
2023-05-21T13:42:09.836Z,49.96
2023-05-21T13:44:53.274Z,46.67
2023-05-21T13:47:22.480Z,46.17
2023-05-21T13:49:51.316Z,47.36
2023-05-21T13:52:21.951Z,47.15
2023-05-21T13:54:53.754Z,46.54
2023-05-21T13:57:22.650Z,47.99
2023-05-21T13:59:54.333Z,48.23
2023-05-21T14:02:25.681Z,47.29
2023-05-21T14:05:01.405Z,46.81
2023-05-21T14:07:50.087Z,48.06
2023-05-21T14:10:22.069Z,48.82
2023-05-21T14:12:51.656Z,50.12
2023-05-21T14:15:22.123Z,51.58
2023-05-21T14:17:52.479Z,53.49
2023-05-21T14:20:21.275Z,56.16
2023-05-21T14:22:49.952Z,57.79
2023-05-21T14:25:18.682Z,59.63
2023-05-21T14:27:47.356Z,61.97
2023-05-21T14:30:16.096Z,64.10
2023-05-21T14:32:46.354Z,60.19
2023-05-21T14:35:15.234Z,64.94
2023-05-21T14:37:52.585Z,66.16
2023-05-21T14:40:21.664Z,67.26
2023-05-21T14:42:52.082Z,68.26
2023-05-21T14:45:21.060Z,73.91
2023-05-21T14:47:49.822Z,80.67
2023-05-21T14:50:18.965Z,82.85
2023-05-21T14:52:47.883Z,86.49
2023-05-21T14:55:18.583Z,86.97
2023-05-21T14:57:47.268Z,79.44
2023-05-21T15:00:23.846Z,78.81
2023-05-21T15:02:54.034Z,74.65
2023-05-21T15:05:23.246Z,72.61
2023-05-21T15:07:58.699Z,74.24
2023-05-21T15:10:27.002Z,72.69
2023-05-21T15:12:57.931Z,72.76
2023-05-21T15:15:29.374Z,69.92
2023-05-21T15:17:58.316Z,66.22
2023-05-21T15:20:27.062Z,64.80
2023-05-21T15:23:05.033Z,63.12
2023-05-21T15:25:26.116Z,62.50
2023-05-21T15:27:56.455Z,60.34
2023-05-21T15:30:26.709Z,61.02
2023-05-21T15:32:55.673Z,59.67
2023-05-21T15:35:24.545Z,59.56
2023-05-21T15:37:53.574Z,60.09
2023-05-21T15:40:23.410Z,57.54
2023-05-21T15:42:52.925Z,58.29
2023-05-21T15:45:21.823Z,59.01
2023-05-21T15:47:50.709Z,58.38
2023-05-21T15:50:25.167Z,56.38
2023-05-21T15:52:57.017Z,57.09
2023-05-21T15:55:27.294Z,57.15
2023-05-21T15:57:55.973Z,55.55
2023-05-21T16:00:24.741Z,52.64
2023-05-21T16:02:55.564Z,52.02
2023-05-21T16:05:26.670Z,51.37
2023-05-21T16:07:56.908Z,50.05
2023-05-21T16:10:25.821Z,47.36
2023-05-21T16:13:02.430Z,46.76
2023-05-21T16:15:36.159Z,46.12
2023-05-21T16:18:05.276Z,48.79
2023-05-21T16:20:36.687Z,48.33
2023-05-21T16:23:06.466Z,49.16
2023-05-21T16:25:36.538Z,50.99
2023-05-21T16:28:05.792Z,49.40
2023-05-21T16:30:34.527Z,49.31
2023-05-21T16:33:03.404Z,50.54
2023-05-21T16:35:33.781Z,50.09
2023-05-21T16:38:02.869Z,50.40
2023-05-21T16:40:31.731Z,51.09
2023-05-21T16:43:08.480Z,50.90
2023-05-21T16:45:46.435Z,50.89
2023-05-21T16:48:16.483Z,51.07
2023-05-21T16:50:46.962Z,51.99
2023-05-21T16:53:16.320Z,51.85
2023-05-21T16:55:44.917Z,52.12
2023-05-21T16:58:19.237Z,51.93
2023-05-21T17:00:48.343Z,52.71
2023-05-21T17:03:17.105Z,53.45
2023-05-21T17:05:45.959Z,54.03
2023-05-21T17:08:14.672Z,54.27
2023-05-21T17:10:43.406Z,55.47
2023-05-21T17:13:21.456Z,56.51
2023-05-21T17:15:42.448Z,56.19
2023-05-21T17:18:12.276Z,56.53
2023-05-21T17:20:41.058Z,58.86
2023-05-21T17:23:10.449Z,56.34
2023-05-21T17:25:39.856Z,57.19
2023-05-21T17:28:08.911Z,58.98
2023-05-21T17:30:37.609Z,58.07
2023-05-21T17:33:07.902Z,58.44
2023-05-21T17:35:36.963Z,58.47
2023-05-21T17:38:05.765Z,58.70
2023-05-21T17:40:34.506Z,58.98
2023-05-21T17:43:04.342Z,59.05
2023-05-21T17:45:33.073Z,59.82
2023-05-21T17:48:02.005Z,59.89
2023-05-21T17:50:30.980Z,59.95
2023-05-21T17:52:59.934Z,60.16
2023-05-21T17:55:28.593Z,61.01
2023-05-21T17:57:58.828Z,61.62
2023-05-21T18:00:32.247Z,62.25
2023-05-21T18:03:04.379Z,63.38
2023-05-21T18:05:34.888Z,64.26
2023-05-21T18:08:13.726Z,65.30
2023-05-21T18:10:50.014Z,66.46
2023-05-21T18:13:21.270Z,67.05
2023-05-21T18:15:53.220Z,68.21
2023-05-21T18:18:26.519Z,69.31
2023-05-21T18:21:05.805Z,70.89
2023-05-21T18:23:39.261Z,72.20
2023-05-21T18:26:08.285Z,75.02
2023-05-21T18:28:37.370Z,73.73
2023-05-21T18:31:06.369Z,76.17
2023-05-21T18:33:35.257Z,73.29
2023-05-21T18:36:03.967Z,74.53
2023-05-21T18:38:35.512Z,75.51
2023-05-21T18:41:15.141Z,76.28
2023-05-21T18:43:48.525Z,76.55
2023-05-21T18:46:19.589Z,76.88
2023-05-21T18:49:11.586Z,77.75
2023-05-21T18:51:43.522Z,75.43
2023-05-21T18:54:12.133Z,74.43
2023-05-21T18:56:40.880Z,74.38
2023-05-21T18:59:14.010Z,76.33
2023-05-21T19:01:42.992Z,74.76
2023-05-21T19:04:12.658Z,72.61
2023-05-21T19:06:41.278Z,73.39
2023-05-21T19:09:10.007Z,73.88
2023-05-21T19:11:56.377Z,74.41
2023-05-21T19:20:31.077Z,79.77
2023-05-21T19:23:01.612Z,81.23
2023-05-21T19:25:32.116Z,82.09
2023-05-21T19:28:01.101Z,84.34
2023-05-21T19:30:32.909Z,84.83
2023-05-21T19:33:07.107Z,88.85
2023-05-21T19:35:43.144Z,93.90
2023-05-21T19:38:12.565Z,97.44
2023-05-21T19:40:41.396Z,95.73
2023-05-21T19:43:10.192Z,96.13
2023-05-21T19:45:38.985Z,97.05
2023-05-21T19:48:11.137Z,97.93
2023-05-21T19:50:41.464Z,98.59
2023-05-21T19:53:56.402Z,100.00
2023-05-21T19:56:04.246Z,100.00
2023-05-21T19:58:51.539Z,100.00
2023-05-21T20:01:32.145Z,100.00
2023-05-21T20:04:03.230Z,100.00
2023-05-21T20:06:31.972Z,100.00
2023-05-21T20:09:00.826Z,100.00
2023-05-21T20:11:29.760Z,100.00
2023-05-21T20:14:02.345Z,100.00
2023-05-21T20:16:33.891Z,100.00
2023-05-21T20:19:04.036Z,100.00
2023-05-21T20:21:33.003Z,100.00
2023-05-21T20:24:03.371Z,100.00
2023-05-21T20:26:39.592Z,100.00
2023-05-21T20:29:13.001Z,100.00
2023-05-21T20:31:44.452Z,100.00
2023-05-21T20:34:13.060Z,100.00
2023-05-21T20:36:41.840Z,100.00
2023-05-21T20:39:13.817Z,100.00
2023-05-21T20:41:45.392Z,100.00
2023-05-21T20:44:17.160Z,100.00
2023-05-21T20:46:46.451Z,100.00
2023-05-21T20:49:18.507Z,100.00
2023-05-21T20:51:51.483Z,100.00
2023-05-21T20:54:21.755Z,100.00
2023-05-21T20:56:50.848Z,100.00
2023-05-21T20:59:19.663Z,100.00
2023-05-21T21:01:48.779Z,100.00
2023-05-21T21:04:19.051Z,100.00
2023-05-21T21:06:48.301Z,100.00
2023-05-21T21:09:17.785Z,100.00
2023-05-21T21:11:46.502Z,100.00
2023-05-21T21:14:15.238Z,100.00
2023-05-21T21:16:44.120Z,100.00
2023-05-21T21:19:12.882Z,100.00
2023-05-21T21:21:41.508Z,100.00
2023-05-21T21:24:10.516Z,100.00
2023-05-21T21:26:39.236Z,100.00
2023-05-21T21:29:08.183Z,100.00
2023-05-21T21:31:37.115Z,100.00
2023-05-21T21:34:06.257Z,100.00
2023-05-21T21:36:39.223Z,100.00
2023-05-21T21:39:08.834Z,100.00
2023-05-21T21:41:37.529Z,100.00
2023-05-21T21:44:06.527Z,100.00
2023-05-21T21:46:40.992Z,100.00
2023-05-21T21:49:09.620Z,100.00
2023-05-21T21:51:39.691Z,100.00
2023-05-21T21:54:08.335Z,100.00
2023-05-21T21:56:39.382Z,100.00
2023-05-21T21:59:08.087Z,100.00
2023-05-21T22:01:36.858Z,100.00
2023-05-21T22:04:05.722Z,100.00
2023-05-21T22:06:34.484Z,100.00
2023-05-21T22:09:03.261Z,100.00
2023-05-21T22:11:32.106Z,100.00
2023-05-21T22:14:00.882Z,100.00
2023-05-21T22:16:29.571Z,100.00
2023-05-21T22:18:58.877Z,100.00
2023-05-21T22:21:32.271Z,100.00
2023-05-21T22:24:01.422Z,100.00
2023-05-21T22:26:30.253Z,100.00
2023-05-21T22:28:59.224Z,100.00
2023-05-21T22:31:28.098Z,100.00
2023-05-21T22:33:56.720Z,100.00
2023-05-21T22:36:25.419Z,100.00
2023-05-21T22:38:54.457Z,100.00
2023-05-21T22:41:23.420Z,100.00
2023-05-21T22:43:52.418Z,100.00
2023-05-21T22:46:21.133Z,100.00
2023-05-21T22:48:49.870Z,100.00
2023-05-21T22:51:18.721Z,100.00
2023-05-21T22:53:47.488Z,100.00
2023-05-21T22:56:16.170Z,100.00
2023-05-21T22:58:45.272Z,100.00
2023-05-21T23:01:14.102Z,100.00
2023-05-21T23:03:42.710Z,100.00
2023-05-21T23:06:11.509Z,100.00
2023-05-21T23:08:40.308Z,100.00
2023-05-21T23:11:08.966Z,100.00
2023-05-21T23:13:37.786Z,100.00
2023-05-21T23:16:06.697Z,100.00
2023-05-21T23:18:36.843Z,100.00
2023-05-21T23:21:05.714Z,100.00
2023-05-21T23:23:34.456Z,100.00
2023-05-21T23:26:03.173Z,100.00
2023-05-21T23:28:31.827Z,100.00
2023-05-21T23:31:00.777Z,100.00
2023-05-21T23:33:29.532Z,100.00
2023-05-21T23:35:58.177Z,100.00
2023-05-21T23:38:27.256Z,100.00
2023-05-21T23:40:56.279Z,100.00
2023-05-21T23:43:24.933Z,100.00
2023-05-21T23:45:53.742Z,100.00
2023-05-21T23:48:24.163Z,100.00
2023-05-21T23:50:53.096Z,100.00
2023-05-21T23:53:21.816Z,100.00
2023-05-21T23:55:50.533Z,100.00
2023-05-21T23:58:19.306Z,100.00
